sensor_id;sensor_type;location;lat;lon;timestamp;temperature;humidity
2106;DHT22;1059;52.548;13.408;2022-10-16T00:00:53;16.60;99.90
2106;DHT22;1059;52.548;13.408;2022-10-16T00:03:22;16.60;99.90
2106;DHT22;1059;52.548;13.408;2022-10-16T00:05:49;16.60;99.90
2106;DHT22;1059;52.548;13.408;2022-10-16T00:08:16;16.60;99.90
2106;DHT22;1059;52.548;13.408;2022-10-16T00:10:43;16.60;99.90
2106;DHT22;1059;52.548;13.408;2022-10-16T00:13:11;16.60;99.90
2106;DHT22;1059;52.548;13.408;2022-10-16T00:15:38;16.60;99.90
2106;DHT22;1059;52.548;13.408;2022-10-16T00:18:05;16.60;99.90
2106;DHT22;1059;52.548;13.408;2022-10-16T00:20:34;16.60;99.90
2106;DHT22;1059;52.548;13.408;2022-10-16T00:23:02;16.70;99.90
2106;DHT22;1059;52.548;13.408;2022-10-16T00:25:29;16.70;99.90
2106;DHT22;1059;52.548;13.408;2022-10-16T00:27:58;16.70;99.90
2106;DHT22;1059;52.548;13.408;2022-10-16T00:30:26;16.70;99.90
2106;DHT22;1059;52.548;13.408;2022-10-16T00:32:54;16.70;99.90
2106;DHT22;1059;52.548;13.408;2022-10-16T00:35:21;16.70;99.90
2106;DHT22;1059;52.548;13.408;2022-10-16T00:37:48;16.70;99.90
2106;DHT22;1059;52.548;13.408;2022-10-16T00:40:15;16.70;99.90
2106;DHT22;1059;52.548;13.408;2022-10-16T00:42:42;16.70;99.90
2106;DHT22;1059;52.548;13.408;2022-10-16T00:45:09;16.70;99.90
2106;DHT22;1059;52.548;13.408;2022-10-16T00:47:41;16.70;99.90
2106;DHT22;1059;52.548;13.408;2022-10-16T00:50:13;16.70;99.90
2106;DHT22;1059;52.548;13.408;2022-10-16T00:52:46;16.70;99.90
2106;DHT22;1059;52.548;13.408;2022-10-16T00:55:14;16.70;99.90
2106;DHT22;1059;52.548;13.408;2022-10-16T00:57:41;16.70;99.90
2106;DHT22;1059;52.548;13.408;2022-10-16T01:00:11;16.60;99.90
2106;DHT22;1059;52.548;13.408;2022-10-16T01:02:39;16.70;99.90
2106;DHT22;1059;52.548;13.408;2022-10-16T01:05:07;16.70;99.90
2106;DHT22;1059;52.548;13.408;2022-10-16T01:07:40;16.70;99.90
2106;DHT22;1059;52.548;13.408;2022-10-16T01:10:17;16.70;99.90
2106;DHT22;1059;52.548;13.408;2022-10-16T01:12:51;16.70;99.90
2106;DHT22;1059;52.548;13.408;2022-10-16T01:15:26;16.70;99.90
2106;DHT22;1059;52.548;13.408;2022-10-16T01:17:58;16.70;99.90
2106;DHT22;1059;52.548;13.408;2022-10-16T01:20:29;16.70;99.90
2106;DHT22;1059;52.548;13.408;2022-10-16T01:23:07;16.70;99.90
2106;DHT22;1059;52.548;13.408;2022-10-16T01:26:10;16.70;99.90
2106;DHT22;1059;52.548;13.408;2022-10-16T01:28:44;16.70;99.90
2106;DHT22;1059;52.548;13.408;2022-10-16T01:31:15;16.70;99.90
2106;DHT22;1059;52.548;13.408;2022-10-16T01:33:47;16.60;99.90
2106;DHT22;1059;52.548;13.408;2022-10-16T01:36:17;16.60;99.90
2106;DHT22;1059;52.548;13.408;2022-10-16T01:38:47;16.60;99.90
2106;DHT22;1059;52.548;13.408;2022-10-16T01:41:18;16.70;99.90
2106;DHT22;1059;52.548;13.408;2022-10-16T01:43:55;16.60;99.90
2106;DHT22;1059;52.548;13.408;2022-10-16T01:46:24;16.60;99.90
2106;DHT22;1059;52.548;13.408;2022-10-16T01:48:52;16.60;99.90
2106;DHT22;1059;52.548;13.408;2022-10-16T01:51:20;16.60;99.90
2106;DHT22;1059;52.548;13.408;2022-10-16T01:53:50;16.60;99.90
2106;DHT22;1059;52.548;13.408;2022-10-16T01:56:20;16.60;99.90
2106;DHT22;1059;52.548;13.408;2022-10-16T01:58:52;16.60;99.90
2106;DHT22;1059;52.548;13.408;2022-10-16T02:01:23;16.60;99.90
2106;DHT22;1059;52.548;13.408;2022-10-16T02:03:54;16.60;99.90
2106;DHT22;1059;52.548;13.408;2022-10-16T02:06:23;16.60;99.90
2106;DHT22;1059;52.548;13.408;2022-10-16T02:08:50;16.60;99.90
2106;DHT22;1059;52.548;13.408;2022-10-16T02:11:17;16.60;99.90
2106;DHT22;1059;52.548;13.408;2022-10-16T02:13:46;16.60;99.90
2106;DHT22;1059;52.548;13.408;2022-10-16T02:16:15;16.60;99.90
2106;DHT22;1059;52.548;13.408;2022-10-16T02:18:43;16.60;99.90
2106;DHT22;1059;52.548;13.408;2022-10-16T02:21:15;16.60;99.90
2106;DHT22;1059;52.548;13.408;2022-10-16T02:23:48;16.60;99.90
2106;DHT22;1059;52.548;13.408;2022-10-16T02:26:25;16.50;99.90
2106;DHT22;1059;52.548;13.408;2022-10-16T02:28:57;16.50;99.90
2106;DHT22;1059;52.548;13.408;2022-10-16T02:31:29;16.60;99.90
2106;DHT22;1059;52.548;13.408;2022-10-16T02:34:00;16.60;99.90
2106;DHT22;1059;52.548;13.408;2022-10-16T02:36:28;16.60;99.90
2106;DHT22;1059;52.548;13.408;2022-10-16T02:38:56;16.50;99.90
2106;DHT22;1059;52.548;13.408;2022-10-16T02:41:23;16.60;99.90
2106;DHT22;1059;52.548;13.408;2022-10-16T02:43:50;16.50;99.90
2106;DHT22;1059;52.548;13.408;2022-10-16T02:46:17;16.60;99.90
2106;DHT22;1059;52.548;13.408;2022-10-16T02:48:46;16.50;99.90
2106;DHT22;1059;52.548;13.408;2022-10-16T02:51:13;16.50;99.90
2106;DHT22;1059;52.548;13.408;2022-10-16T02:53:39;16.50;99.90
2106;DHT22;1059;52.548;13.408;2022-10-16T02:56:07;16.60;99.90
2106;DHT22;1059;52.548;13.408;2022-10-16T02:58:33;16.60;99.90
2106;DHT22;1059;52.548;13.408;2022-10-16T03:01:02;16.50;99.90
2106;DHT22;1059;52.548;13.408;2022-10-16T03:03:29;16.50;99.90
2106;DHT22;1059;52.548;13.408;2022-10-16T03:05:57;16.50;99.90
2106;DHT22;1059;52.548;13.408;2022-10-16T03:08:24;16.50;99.90
2106;DHT22;1059;52.548;13.408;2022-10-16T03:10:51;16.50;99.90
2106;DHT22;1059;52.548;13.408;2022-10-16T03:13:18;16.50;99.90
2106;DHT22;1059;52.548;13.408;2022-10-16T03:15:47;16.50;99.90
2106;DHT22;1059;52.548;13.408;2022-10-16T03:18:13;16.50;99.90
2106;DHT22;1059;52.548;13.408;2022-10-16T03:20:41;16.50;99.90
2106;DHT22;1059;52.548;13.408;2022-10-16T03:23:10;16.40;99.90
2106;DHT22;1059;52.548;13.408;2022-10-16T03:25:36;16.50;99.90
2106;DHT22;1059;52.548;13.408;2022-10-16T03:28:03;16.50;99.90
2106;DHT22;1059;52.548;13.408;2022-10-16T03:30:30;16.40;99.90
2106;DHT22;1059;52.548;13.408;2022-10-16T03:32:57;16.40;99.90
2106;DHT22;1059;52.548;13.408;2022-10-16T03:35:24;16.40;99.90
2106;DHT22;1059;52.548;13.408;2022-10-16T03:37:51;16.40;99.90
2106;DHT22;1059;52.548;13.408;2022-10-16T03:40:19;16.40;99.90
2106;DHT22;1059;52.548;13.408;2022-10-16T03:42:46;16.30;99.90
2106;DHT22;1059;52.548;13.408;2022-10-16T03:45:13;16.30;99.90
2106;DHT22;1059;52.548;13.408;2022-10-16T03:47:40;16.30;99.90
2106;DHT22;1059;52.548;13.408;2022-10-16T03:50:07;16.30;99.90
2106;DHT22;1059;52.548;13.408;2022-10-16T03:52:34;16.20;99.90
2106;DHT22;1059;52.548;13.408;2022-10-16T03:55:01;16.20;99.90
2106;DHT22;1059;52.548;13.408;2022-10-16T03:57:30;16.20;99.90
2106;DHT22;1059;52.548;13.408;2022-10-16T03:59:56;16.20;99.90
2106;DHT22;1059;52.548;13.408;2022-10-16T04:02:23;16.10;99.90
2106;DHT22;1059;52.548;13.408;2022-10-16T04:04:50;16.10;99.90
2106;DHT22;1059;52.548;13.408;2022-10-16T04:07:17;16.10;99.90
2106;DHT22;1059;52.548;13.408;2022-10-16T04:09:46;16.10;99.90
2106;DHT22;1059;52.548;13.408;2022-10-16T04:12:12;16.00;99.90
2106;DHT22;1059;52.548;13.408;2022-10-16T04:14:41;16.00;99.90
2106;DHT22;1059;52.548;13.408;2022-10-16T04:17:07;16.00;99.90
2106;DHT22;1059;52.548;13.408;2022-10-16T04:19:34;16.00;99.90
2106;DHT22;1059;52.548;13.408;2022-10-16T04:22:02;16.00;99.90
2106;DHT22;1059;52.548;13.408;2022-10-16T04:24:29;16.00;99.90
2106;DHT22;1059;52.548;13.408;2022-10-16T04:26:55;16.00;99.90
2106;DHT22;1059;52.548;13.408;2022-10-16T04:29:22;16.00;99.90
2106;DHT22;1059;52.548;13.408;2022-10-16T04:31:50;15.90;99.90
2106;DHT22;1059;52.548;13.408;2022-10-16T04:34:17;15.90;99.90
2106;DHT22;1059;52.548;13.408;2022-10-16T04:36:46;16.00;99.90
2106;DHT22;1059;52.548;13.408;2022-10-16T04:39:13;15.90;99.90
2106;DHT22;1059;52.548;13.408;2022-10-16T04:41:40;15.90;99.90
2106;DHT22;1059;52.548;13.408;2022-10-16T04:44:07;15.90;99.90
2106;DHT22;1059;52.548;13.408;2022-10-16T04:46:34;15.90;99.90
2106;DHT22;1059;52.548;13.408;2022-10-16T04:49:02;15.90;99.90
2106;DHT22;1059;52.548;13.408;2022-10-16T04:51:29;15.90;99.90
2106;DHT22;1059;52.548;13.408;2022-10-16T04:53:56;15.90;99.90
2106;DHT22;1059;52.548;13.408;2022-10-16T04:56:22;15.90;99.90
2106;DHT22;1059;52.548;13.408;2022-10-16T04:58:49;15.90;99.90
2106;DHT22;1059;52.548;13.408;2022-10-16T05:01:16;15.90;99.90
2106;DHT22;1059;52.548;13.408;2022-10-16T05:03:43;15.90;99.90
2106;DHT22;1059;52.548;13.408;2022-10-16T05:06:12;15.90;99.90
2106;DHT22;1059;52.548;13.408;2022-10-16T05:08:38;15.90;99.90
2106;DHT22;1059;52.548;13.408;2022-10-16T05:11:05;15.90;99.90
2106;DHT22;1059;52.548;13.408;2022-10-16T05:13:32;15.80;99.90
2106;DHT22;1059;52.548;13.408;2022-10-16T05:15:59;15.90;99.90
2106;DHT22;1059;52.548;13.408;2022-10-16T05:18:25;15.80;99.90
2106;DHT22;1059;52.548;13.408;2022-10-16T05:20:52;15.80;99.90
2106;DHT22;1059;52.548;13.408;2022-10-16T05:23:21;15.80;99.90
2106;DHT22;1059;52.548;13.408;2022-10-16T05:25:53;15.80;99.90
2106;DHT22;1059;52.548;13.408;2022-10-16T05:28:21;15.80;99.90
2106;DHT22;1059;52.548;13.408;2022-10-16T05:30:47;15.80;99.90
2106;DHT22;1059;52.548;13.408;2022-10-16T05:33:14;15.80;99.90
2106;DHT22;1059;52.548;13.408;2022-10-16T05:35:41;15.80;99.90
2106;DHT22;1059;52.548;13.408;2022-10-16T05:38:09;15.80;99.90
2106;DHT22;1059;52.548;13.408;2022-10-16T05:40:37;15.80;99.90
2106;DHT22;1059;52.548;13.408;2022-10-16T05:43:04;15.80;99.90
2106;DHT22;1059;52.548;13.408;2022-10-16T05:45:31;15.90;99.90
2106;DHT22;1059;52.548;13.408;2022-10-16T05:47:58;15.90;99.90
2106;DHT22;1059;52.548;13.408;2022-10-16T05:50:26;15.90;99.90
2106;DHT22;1059;52.548;13.408;2022-10-16T05:52:52;16.00;99.90
2106;DHT22;1059;52.548;13.408;2022-10-16T05:55:19;16.00;99.90
2106;DHT22;1059;52.548;13.408;2022-10-16T05:57:47;16.00;99.90
2106;DHT22;1059;52.548;13.408;2022-10-16T06:00:14;16.10;99.90
2106;DHT22;1059;52.548;13.408;2022-10-16T06:02:42;16.10;99.90
2106;DHT22;1059;52.548;13.408;2022-10-16T06:05:09;16.00;99.90
2106;DHT22;1059;52.548;13.408;2022-10-16T06:07:36;16.00;99.90
2106;DHT22;1059;52.548;13.408;2022-10-16T06:10:04;16.00;99.90
2106;DHT22;1059;52.548;13.408;2022-10-16T06:12:31;16.00;99.90
2106;DHT22;1059;52.548;13.408;2022-10-16T06:14:59;16.00;99.90
2106;DHT22;1059;52.548;13.408;2022-10-16T06:17:26;16.00;99.90
2106;DHT22;1059;52.548;13.408;2022-10-16T06:19:52;16.10;99.90
2106;DHT22;1059;52.548;13.408;2022-10-16T06:22:19;16.10;99.90
2106;DHT22;1059;52.548;13.408;2022-10-16T06:24:46;16.10;99.90
2106;DHT22;1059;52.548;13.408;2022-10-16T06:27:14;16.10;99.90
2106;DHT22;1059;52.548;13.408;2022-10-16T06:29:41;16.20;99.90
2106;DHT22;1059;52.548;13.408;2022-10-16T06:32:10;16.20;99.90
2106;DHT22;1059;52.548;13.408;2022-10-16T06:34:37;16.20;99.90
2106;DHT22;1059;52.548;13.408;2022-10-16T06:37:05;16.30;99.90
2106;DHT22;1059;52.548;13.408;2022-10-16T06:39:32;16.30;99.90
2106;DHT22;1059;52.548;13.408;2022-10-16T06:41:59;16.30;99.90
2106;DHT22;1059;52.548;13.408;2022-10-16T06:44:25;16.30;99.90
2106;DHT22;1059;52.548;13.408;2022-10-16T06:46:52;16.30;99.90
2106;DHT22;1059;52.548;13.408;2022-10-16T06:49:20;16.30;99.90
2106;DHT22;1059;52.548;13.408;2022-10-16T06:51:48;16.30;99.90
2106;DHT22;1059;52.548;13.408;2022-10-16T06:54:15;16.30;99.90
2106;DHT22;1059;52.548;13.408;2022-10-16T06:56:43;16.30;99.90
2106;DHT22;1059;52.548;13.408;2022-10-16T06:59:10;16.30;99.90
2106;DHT22;1059;52.548;13.408;2022-10-16T07:01:36;16.30;99.90
2106;DHT22;1059;52.548;13.408;2022-10-16T07:04:03;16.30;99.90
2106;DHT22;1059;52.548;13.408;2022-10-16T07:06:33;16.40;99.90
2106;DHT22;1059;52.548;13.408;2022-10-16T07:09:03;16.40;99.90
2106;DHT22;1059;52.548;13.408;2022-10-16T07:11:31;16.50;99.90
2106;DHT22;1059;52.548;13.408;2022-10-16T07:13:58;16.60;99.90
2106;DHT22;1059;52.548;13.408;2022-10-16T07:16:26;16.60;99.90
2106;DHT22;1059;52.548;13.408;2022-10-16T07:18:53;16.70;99.90
2106;DHT22;1059;52.548;13.408;2022-10-16T07:21:24;16.80;99.90
2106;DHT22;1059;52.548;13.408;2022-10-16T07:23:54;16.80;99.90
2106;DHT22;1059;52.548;13.408;2022-10-16T07:26:21;16.90;99.90
2106;DHT22;1059;52.548;13.408;2022-10-16T07:28:48;17.00;99.90
2106;DHT22;1059;52.548;13.408;2022-10-16T07:31:17;17.00;99.90
2106;DHT22;1059;52.548;13.408;2022-10-16T07:33:45;17.10;99.90
2106;DHT22;1059;52.548;13.408;2022-10-16T07:36:14;17.10;99.90
2106;DHT22;1059;52.548;13.408;2022-10-16T07:38:41;17.10;99.90
2106;DHT22;1059;52.548;13.408;2022-10-16T07:41:11;17.20;99.90
2106;DHT22;1059;52.548;13.408;2022-10-16T07:43:38;17.20;99.90
2106;DHT22;1059;52.548;13.408;2022-10-16T07:46:05;17.20;99.90
2106;DHT22;1059;52.548;13.408;2022-10-16T07:48:34;17.20;99.90
2106;DHT22;1059;52.548;13.408;2022-10-16T07:51:03;17.30;99.90
2106;DHT22;1059;52.548;13.408;2022-10-16T07:53:30;17.30;99.90
2106;DHT22;1059;52.548;13.408;2022-10-16T07:55:57;17.30;99.90
2106;DHT22;1059;52.548;13.408;2022-10-16T07:58:26;17.30;99.90
2106;DHT22;1059;52.548;13.408;2022-10-16T08:00:53;17.30;99.90
2106;DHT22;1059;52.548;13.408;2022-10-16T08:03:20;17.30;99.90
2106;DHT22;1059;52.548;13.408;2022-10-16T08:05:47;17.40;99.90
2106;DHT22;1059;52.548;13.408;2022-10-16T08:08:15;17.40;99.90
2106;DHT22;1059;52.548;13.408;2022-10-16T08:10:42;17.40;99.90
2106;DHT22;1059;52.548;13.408;2022-10-16T08:13:10;17.40;99.90
2106;DHT22;1059;52.548;13.408;2022-10-16T08:15:39;17.40;99.90
2106;DHT22;1059;52.548;13.408;2022-10-16T08:18:06;17.50;99.90
2106;DHT22;1059;52.548;13.408;2022-10-16T08:20:33;17.50;99.90
2106;DHT22;1059;52.548;13.408;2022-10-16T08:23:00;17.50;99.90
2106;DHT22;1059;52.548;13.408;2022-10-16T08:25:27;17.50;99.90
2106;DHT22;1059;52.548;13.408;2022-10-16T08:27:55;17.60;99.90
2106;DHT22;1059;52.548;13.408;2022-10-16T08:30:23;17.60;99.90
2106;DHT22;1059;52.548;13.408;2022-10-16T08:32:52;17.50;99.90
2106;DHT22;1059;52.548;13.408;2022-10-16T08:35:19;17.60;99.90
2106;DHT22;1059;52.548;13.408;2022-10-16T08:37:45;17.60;99.90
2106;DHT22;1059;52.548;13.408;2022-10-16T08:40:17;17.60;99.90
2106;DHT22;1059;52.548;13.408;2022-10-16T08:43:01;17.70;99.90
2106;DHT22;1059;52.548;13.408;2022-10-16T08:45:38;17.70;99.90
2106;DHT22;1059;52.548;13.408;2022-10-16T08:48:18;17.70;99.90
2106;DHT22;1059;52.548;13.408;2022-10-16T08:50:48;17.80;99.90
2106;DHT22;1059;52.548;13.408;2022-10-16T08:53:19;17.80;99.90
2106;DHT22;1059;52.548;13.408;2022-10-16T08:55:50;17.80;99.90
2106;DHT22;1059;52.548;13.408;2022-10-16T08:58:19;17.90;99.90
2106;DHT22;1059;52.548;13.408;2022-10-16T09:00:47;17.90;99.90
2106;DHT22;1059;52.548;13.408;2022-10-16T09:03:35;17.90;99.90
2106;DHT22;1059;52.548;13.408;2022-10-16T09:06:21;18.00;99.90
2106;DHT22;1059;52.548;13.408;2022-10-16T09:09:03;18.00;99.90
2106;DHT22;1059;52.548;13.408;2022-10-16T09:11:41;18.10;99.90
2106;DHT22;1059;52.548;13.408;2022-10-16T09:14:21;18.20;99.90
2106;DHT22;1059;52.548;13.408;2022-10-16T09:16:56;18.30;99.90
2106;DHT22;1059;52.548;13.408;2022-10-16T09:19:32;18.30;99.90
2106;DHT22;1059;52.548;13.408;2022-10-16T09:22:08;18.40;99.90
2106;DHT22;1059;52.548;13.408;2022-10-16T09:24:37;18.50;99.90
2106;DHT22;1059;52.548;13.408;2022-10-16T09:27:04;18.50;99.90
2106;DHT22;1059;52.548;13.408;2022-10-16T09:29:30;18.60;99.90
2106;DHT22;1059;52.548;13.408;2022-10-16T09:32:10;18.60;99.90
2106;DHT22;1059;52.548;13.408;2022-10-16T09:34:42;18.60;99.90
2106;DHT22;1059;52.548;13.408;2022-10-16T09:37:13;18.60;99.90
2106;DHT22;1059;52.548;13.408;2022-10-16T09:39:45;18.60;99.90
2106;DHT22;1059;52.548;13.408;2022-10-16T09:42:14;18.60;99.90
2106;DHT22;1059;52.548;13.408;2022-10-16T09:44:42;18.60;99.90
2106;DHT22;1059;52.548;13.408;2022-10-16T09:47:14;18.60;99.90
2106;DHT22;1059;52.548;13.408;2022-10-16T09:49:52;18.60;99.90
2106;DHT22;1059;52.548;13.408;2022-10-16T09:52:19;18.70;99.90
2106;DHT22;1059;52.548;13.408;2022-10-16T09:54:50;18.80;99.90
2106;DHT22;1059;52.548;13.408;2022-10-16T09:57:17;18.80;99.90
2106;DHT22;1059;52.548;13.408;2022-10-16T09:59:48;18.80;99.90
2106;DHT22;1059;52.548;13.408;2022-10-16T10:02:17;18.80;99.90
2106;DHT22;1059;52.548;13.408;2022-10-16T10:04:50;18.80;99.90
2106;DHT22;1059;52.548;13.408;2022-10-16T10:07:24;18.90;99.90
2106;DHT22;1059;52.548;13.408;2022-10-16T10:09:52;19.10;99.90
2106;DHT22;1059;52.548;13.408;2022-10-16T10:12:21;19.20;99.90
2106;DHT22;1059;52.548;13.408;2022-10-16T10:14:50;19.30;99.90
2106;DHT22;1059;52.548;13.408;2022-10-16T10:17:19;19.30;99.90
2106;DHT22;1059;52.548;13.408;2022-10-16T10:19:49;19.20;99.90
2106;DHT22;1059;52.548;13.408;2022-10-16T10:22:26;19.20;99.90
2106;DHT22;1059;52.548;13.408;2022-10-16T10:27:52;19.20;99.90
2106;DHT22;1059;52.548;13.408;2022-10-16T10:30:26;19.20;99.90
2106;DHT22;1059;52.548;13.408;2022-10-16T10:33:07;19.20;99.90
2106;DHT22;1059;52.548;13.408;2022-10-16T10:35:42;19.20;99.90
2106;DHT22;1059;52.548;13.408;2022-10-16T10:38:24;19.10;99.90
2106;DHT22;1059;52.548;13.408;2022-10-16T10:40:57;19.10;99.90
2106;DHT22;1059;52.548;13.408;2022-10-16T10:43:41;19.10;99.90
2106;DHT22;1059;52.548;13.408;2022-10-16T10:46:18;19.10;99.90
2106;DHT22;1059;52.548;13.408;2022-10-16T10:49:03;19.20;99.90
2106;DHT22;1059;52.548;13.408;2022-10-16T10:51:41;19.30;99.90
2106;DHT22;1059;52.548;13.408;2022-10-16T10:54:15;19.50;99.90
2106;DHT22;1059;52.548;13.408;2022-10-16T10:56:48;19.60;99.90
2106;DHT22;1059;52.548;13.408;2022-10-16T10:59:37;19.70;99.90
2106;DHT22;1059;52.548;13.408;2022-10-16T11:02:15;19.80;99.90
2106;DHT22;1059;52.548;13.408;2022-10-16T11:05:07;19.90;99.90
2106;DHT22;1059;52.548;13.408;2022-10-16T11:07:43;20.10;99.90
2106;DHT22;1059;52.548;13.408;2022-10-16T11:10:18;20.20;99.90
2106;DHT22;1059;52.548;13.408;2022-10-16T11:12:49;20.20;99.90
2106;DHT22;1059;52.548;13.408;2022-10-16T11:15:20;20.20;99.90
2106;DHT22;1059;52.548;13.408;2022-10-16T11:17:50;20.20;99.90
2106;DHT22;1059;52.548;13.408;2022-10-16T11:20:21;20.20;99.90
2106;DHT22;1059;52.548;13.408;2022-10-16T11:22:53;20.10;99.90
2106;DHT22;1059;52.548;13.408;2022-10-16T11:25:26;20.10;99.90
2106;DHT22;1059;52.548;13.408;2022-10-16T11:27:58;20.20;99.90
2106;DHT22;1059;52.548;13.408;2022-10-16T11:30:29;20.30;99.90
2106;DHT22;1059;52.548;13.408;2022-10-16T11:33:08;20.30;99.90
2106;DHT22;1059;52.548;13.408;2022-10-16T11:35:46;20.30;99.90
2106;DHT22;1059;52.548;13.408;2022-10-16T11:38:18;20.40;99.90
2106;DHT22;1059;52.548;13.408;2022-10-16T11:40:49;20.50;99.90
2106;DHT22;1059;52.548;13.408;2022-10-16T11:43:24;20.60;99.90
2106;DHT22;1059;52.548;13.408;2022-10-16T11:45:53;20.70;99.90
2106;DHT22;1059;52.548;13.408;2022-10-16T11:48:27;20.80;99.90
2106;DHT22;1059;52.548;13.408;2022-10-16T11:51:00;21.10;99.90
2106;DHT22;1059;52.548;13.408;2022-10-16T11:53:45;21.60;99.90
2106;DHT22;1059;52.548;13.408;2022-10-16T11:56:16;22.30;99.90
2106;DHT22;1059;52.548;13.408;2022-10-16T11:58:52;22.70;99.90
2106;DHT22;1059;52.548;13.408;2022-10-16T12:01:25;22.80;99.90
2106;DHT22;1059;52.548;13.408;2022-10-16T12:04:02;22.80;99.90
2106;DHT22;1059;52.548;13.408;2022-10-16T12:06:34;22.70;99.90
2106;DHT22;1059;52.548;13.408;2022-10-16T12:09:02;22.80;99.90
2106;DHT22;1059;52.548;13.408;2022-10-16T12:11:36;22.60;99.90
2106;DHT22;1059;52.548;13.408;2022-10-16T12:14:18;22.50;99.90
2106;DHT22;1059;52.548;13.408;2022-10-16T12:16:54;22.70;99.90
2106;DHT22;1059;52.548;13.408;2022-10-16T12:19:22;23.30;99.90
2106;DHT22;1059;52.548;13.408;2022-10-16T12:21:50;24.40;99.90
2106;DHT22;1059;52.548;13.408;2022-10-16T12:24:27;25.60;99.90
2106;DHT22;1059;52.548;13.408;2022-10-16T12:26:58;26.30;99.90
2106;DHT22;1059;52.548;13.408;2022-10-16T12:29:32;26.40;99.90
2106;DHT22;1059;52.548;13.408;2022-10-16T12:32:00;26.90;99.90
2106;DHT22;1059;52.548;13.408;2022-10-16T12:34:29;27.40;99.90
2106;DHT22;1059;52.548;13.408;2022-10-16T12:37:09;28.10;99.90
2106;DHT22;1059;52.548;13.408;2022-10-16T12:39:37;28.30;98.70
2106;DHT22;1059;52.548;13.408;2022-10-16T12:42:19;28.60;96.10
2106;DHT22;1059;52.548;13.408;2022-10-16T12:44:46;28.80;93.40
2106;DHT22;1059;52.548;13.408;2022-10-16T12:47:21;28.90;90.50
2106;DHT22;1059;52.548;13.408;2022-10-16T12:49:49;28.60;88.40
2106;DHT22;1059;52.548;13.408;2022-10-16T12:52:28;28.10;87.10
2106;DHT22;1059;52.548;13.408;2022-10-16T12:54:57;27.40;90.30
2106;DHT22;1059;52.548;13.408;2022-10-16T12:57:44;27.10;91.30
2106;DHT22;1059;52.548;13.408;2022-10-16T13:00:21;27.10;90.30
2106;DHT22;1059;52.548;13.408;2022-10-16T13:03:11;27.00;90.80
2106;DHT22;1059;52.548;13.408;2022-10-16T13:05:53;27.40;90.70
2106;DHT22;1059;52.548;13.408;2022-10-16T13:08:40;28.00;85.80
2106;DHT22;1059;52.548;13.408;2022-10-16T13:11:14;27.70;82.80
2106;DHT22;1059;52.548;13.408;2022-10-16T13:17:14;28.00;82.70
2106;DHT22;1059;52.548;13.408;2022-10-16T13:19:53;27.70;80.90
2106;DHT22;1059;52.548;13.408;2022-10-16T13:22:24;26.10;85.60
2106;DHT22;1059;52.548;13.408;2022-10-16T13:25:08;25.10;89.80
2106;DHT22;1059;52.548;13.408;2022-10-16T13:27:44;24.30;92.00
2106;DHT22;1059;52.548;13.408;2022-10-16T13:30:16;23.80;93.70
2106;DHT22;1059;52.548;13.408;2022-10-16T13:32:47;23.30;96.00
2106;DHT22;1059;52.548;13.408;2022-10-16T13:35:20;22.90;97.60
2106;DHT22;1059;52.548;13.408;2022-10-16T13:37:47;22.60;99.90
2106;DHT22;1059;52.548;13.408;2022-10-16T13:40:20;22.90;99.90
2106;DHT22;1059;52.548;13.408;2022-10-16T13:42:47;23.60;99.90
2106;DHT22;1059;52.548;13.408;2022-10-16T13:45:18;24.60;99.70
2106;DHT22;1059;52.548;13.408;2022-10-16T13:47:47;25.70;96.90
2106;DHT22;1059;52.548;13.408;2022-10-16T13:50:18;26.40;95.90
2106;DHT22;1059;52.548;13.408;2022-10-16T13:52:45;26.70;93.90
2106;DHT22;1059;52.548;13.408;2022-10-16T13:55:13;26.60;92.50
2106;DHT22;1059;52.548;13.408;2022-10-16T13:57:40;26.30;92.40
2106;DHT22;1059;52.548;13.408;2022-10-16T14:00:22;26.10;93.20
2106;DHT22;1059;52.548;13.408;2022-10-16T14:02:57;26.60;91.80
2106;DHT22;1059;52.548;13.408;2022-10-16T14:05:25;27.20;91.10
2106;DHT22;1059;52.548;13.408;2022-10-16T14:07:53;27.80;88.00
2106;DHT22;1059;52.548;13.408;2022-10-16T14:10:23;27.90;82.80
2106;DHT22;1059;52.548;13.408;2022-10-16T14:12:58;28.20;80.80
2106;DHT22;1059;52.548;13.408;2022-10-16T14:15:26;27.80;79.40
2106;DHT22;1059;52.548;13.408;2022-10-16T14:17:55;27.90;79.40
2106;DHT22;1059;52.548;13.408;2022-10-16T14:20:26;27.60;76.70
2106;DHT22;1059;52.548;13.408;2022-10-16T14:23:00;27.20;79.00
2106;DHT22;1059;52.548;13.408;2022-10-16T14:25:30;27.40;79.50
2106;DHT22;1059;52.548;13.408;2022-10-16T14:27:59;27.70;77.70
2106;DHT22;1059;52.548;13.408;2022-10-16T14:30:28;27.50;78.00
2106;DHT22;1059;52.548;13.408;2022-10-16T14:32:58;27.80;76.60
2106;DHT22;1059;52.548;13.408;2022-10-16T14:35:32;27.90;75.40
2106;DHT22;1059;52.548;13.408;2022-10-16T14:38:00;27.60;76.70
2106;DHT22;1059;52.548;13.408;2022-10-16T14:40:29;27.40;77.90
2106;DHT22;1059;52.548;13.408;2022-10-16T14:42:57;27.60;77.20
2106;DHT22;1059;52.548;13.408;2022-10-16T14:45:27;27.70;77.40
2106;DHT22;1059;52.548;13.408;2022-10-16T14:47:58;27.80;77.20
2106;DHT22;1059;52.548;13.408;2022-10-16T14:50:25;27.90;76.20
2106;DHT22;1059;52.548;13.408;2022-10-16T14:52:53;27.90;76.20
2106;DHT22;1059;52.548;13.408;2022-10-16T14:55:20;28.00;76.50
2106;DHT22;1059;52.548;13.408;2022-10-16T14:57:47;28.00;75.20
2106;DHT22;1059;52.548;13.408;2022-10-16T15:00:20;27.90;75.50
2106;DHT22;1059;52.548;13.408;2022-10-16T15:02:48;27.40;75.20
2106;DHT22;1059;52.548;13.408;2022-10-16T15:05:20;27.00;77.40
2106;DHT22;1059;52.548;13.408;2022-10-16T15:07:47;26.70;78.50
2106;DHT22;1059;52.548;13.408;2022-10-16T15:10:15;26.80;79.10
2106;DHT22;1059;52.548;13.408;2022-10-16T15:12:43;26.70;78.00
2106;DHT22;1059;52.548;13.408;2022-10-16T15:15:25;26.50;78.80
2106;DHT22;1059;52.548;13.408;2022-10-16T15:17:52;26.00;80.90
2106;DHT22;1059;52.548;13.408;2022-10-16T15:20:23;25.90;81.40
2106;DHT22;1059;52.548;13.408;2022-10-16T15:22:50;25.90;81.40
2106;DHT22;1059;52.548;13.408;2022-10-16T15:25:32;25.40;81.20
2106;DHT22;1059;52.548;13.408;2022-10-16T15:28:01;25.00;80.70
2106;DHT22;1059;52.548;13.408;2022-10-16T15:30:29;24.60;81.60
2106;DHT22;1059;52.548;13.408;2022-10-16T15:32:56;23.90;82.70
2106;DHT22;1059;52.548;13.408;2022-10-16T15:35:24;23.30;85.00
2106;DHT22;1059;52.548;13.408;2022-10-16T15:37:51;22.90;87.70
2106;DHT22;1059;52.548;13.408;2022-10-16T15:40:19;22.70;89.90
2106;DHT22;1059;52.548;13.408;2022-10-16T15:42:46;22.50;90.40
2106;DHT22;1059;52.548;13.408;2022-10-16T15:45:13;22.10;91.60
2106;DHT22;1059;52.548;13.408;2022-10-16T15:47:41;21.80;92.90
2106;DHT22;1059;52.548;13.408;2022-10-16T15:50:10;21.50;94.00
2106;DHT22;1059;52.548;13.408;2022-10-16T15:52:39;21.30;95.40
2106;DHT22;1059;52.548;13.408;2022-10-16T15:55:07;21.00;96.80
2106;DHT22;1059;52.548;13.408;2022-10-16T15:57:34;20.80;98.50
2106;DHT22;1059;52.548;13.408;2022-10-16T16:00:08;20.70;99.90
2106;DHT22;1059;52.548;13.408;2022-10-16T16:02:35;20.50;99.90
2106;DHT22;1059;52.548;13.408;2022-10-16T16:05:02;20.30;99.90
2106;DHT22;1059;52.548;13.408;2022-10-16T16:07:32;20.20;99.90
2106;DHT22;1059;52.548;13.408;2022-10-16T16:10:02;20.10;99.90